CW9127 Weather Reports


time (UTC)temp
F
wind
direction
speed
knots
gust
knots
rain 1hr
in
rain 24hr
in
rain mn
in
humidity
%
barometer
mb
20260906070337 76 68 7.0 14.8 0.05 0.05 0.05 84 1015.1
20260906065316 77 68 8.7 14.8 0.00 0.00 0.00 82 1015.2
20260906064337 77 68 7.0 10.4 0.00 0.00 0.00 83 1015.4
20260906063316 76 45 4.3 7.8 0.00 0.00 0.00 84 1015.0
20260906062317 76 68 3.5 5.2 0.00 0.00 0.00 85 1014.7
20260906061337 76 0.0 1.7 0.00 0.00 0.00 85 1013.8
20260906060317 76 0.0 0.0 0.00 0.00 0.00 85 1013.7
20260906055316 76 0.0 0.0 0.00 0.00 0.00 85 1013.8
20260906054316 76 0.0 0.9 0.00 0.00 0.00 86 1013.8
20260906053336 75 90 2.6 3.5 0.00 0.00 0.00 88 1013.8
20260906052316 74 0.0 0.0 0.00 0.00 0.00 89 1013.2
20260906051316 74 0.0 0.0 0.00 0.00 0.00 88 1012.8
20260906050317 74 0.0 0.0 0.00 0.00 0.00 88 1012.7
20260906045316 75 0.0 0.0 0.00 0.00 0.00 88 1012.9
20260906044316 74 0.0 0.0 0.00 0.00 0.00 88 1013.0
20260906043316 74 0.0 0.0 0.00 0.00 0.00 89 1013.1
20260906042418 74 0.0 0.0 0.00 0.00 0.00 89 1013.3
20260906041316 74 0.0 0.0 0.00 0.00 0.00 88 1013.2
20260906040336 74 0.0 0.0 0.00 0.00 0.00 88 1013.4
20260906035316 74 0.0 0.0 0.00 0.00 0.00 88 1013.4
20260906034318 75 0.0 0.0 0.00 0.00 0.00 87 1013.5
20260906033318 75 0.0 0.0 0.00 0.00 0.00 87 1013.3
20260906032318 75 0.0 0.0 0.00 0.00 0.00 87 1013.1
20260906031318 75 0.0 0.0 0.00 0.00 0.00 86 1013.1
20260906030318 75 0.0 0.0 0.00 0.00 0.00 85 1012.9
20260906025318 76 0.0 0.0 0.00 0.00 0.00 85 1012.8
20260906024318 76 0.0 0.0 0.00 0.00 0.00 84 1013.0
20260906023317 76 0.0 0.0 0.00 0.00 0.00 84 1012.7
20260906022318 76 0.0 0.0 0.00 0.00 0.00 83 1012.5
20260906021318 77 0.0 0.0 0.00 0.00 0.00 82 1012.4
20260906020319 77 0.0 0.0 0.00 0.00 0.00 82 1012.2
20260906015317 77 0.0 0.0 0.00 0.00 0.00 81 1012.1
20260906014318 77 0.0 0.0 0.00 0.00 0.00 81 1011.9
20260906013317 77 0.0 0.0 0.00 0.00 0.00 82 1012.1
20260906012318 78 0.0 0.0 0.00 0.00 0.00 80 1012.2
20260906011317 78 0.0 0.0 0.00 0.00 0.00 78 1012.0
20260906010317 79 0.0 0.0 0.00 0.00 0.00 77 1011.7
20260906005317 79 0.0 0.0 0.00 0.00 0.00 77 1011.7
20260906004317 80 0.0 0.0 0.00 0.00 0.00 75 1011.6
20260906003338 80 0.0 0.0 0.00 0.00 0.00 74 1011.8
20260906002318 81 0.0 0.0 0.00 0.00 0.00 73 1011.6
20260906001337 82 0.0 0.0 0.00 0.00 0.00 70 1011.5
20260906000318 82 68 0.9 2.6 0.00 0.00 0.00 69 1011.5
20260905235318 82 68 1.7 2.6 0.00 0.00 0.00 68 1011.6
20260905234319 83 68 2.6 4.3 0.00 0.00 0.00 66 1011.9
20260905233317 85 90 7.0 14.8 0.00 0.00 0.00 61 1012.1
20260905232337 86 90 3.5 4.3 0.00 0.00 0.00 63 1012.0
20260905231317 87 0.0 3.5 0.00 0.00 0.00 58 1012.0
20260905230318 87 68 1.7 3.5 0.00 0.00 0.00 56 1012.0
20260905225317 88 68 7.0 12.2 0.00 0.00 0.00 51 1011.8
20260905224317 89 68 9.6 13.0 0.00 0.00 0.00 51 1011.6
20260905223318 97 45 2.6 4.3 0.00 0.00 0.00 50 1011.7
20260905222317 96 0 1.7 3.5 0.00 0.00 0.00 49 1011.6
20260905221357 96 68 2.6 4.3 0.00 0.00 0.00 49 1011.4
20260905220340 95 0.0 0.0 0.00 0.00 0.00 53 1011.5
20260905215337 94 0.0 0.0 0.00 0.00 0.00 54 1011.5
20260905214317 94 68 0.9 3.5 0.00 0.00 0.00 54 1011.7
20260905213317 95 0.0 0.0 0.00 0.00 0.00 54 1011.7
20260905212317 95 0.0 0.0 0.00 0.00 0.00 51 1011.7
20260905211337 96 68 1.7 2.6 0.00 0.00 0.00 51 1011.8
20260905210317 97 45 1.7 3.5 0.00 0.00 0.00 48 1011.8
20260905205337 96 0.0 0.0 0.00 0.00 0.00 50 1011.7
20260905204317 95 68 0.9 2.6 0.00 0.00 0.00 52 1011.9
20260905203316 97 45 2.6 3.5 0.00 0.00 0.00 48 1012.0
20260905202317 98 0.0 1.7 0.00 0.00 0.00 48 1012.2
20260905201318 99 338 1.7 2.6 0.00 0.00 0.00 44 1012.4
20260905200317 98 0.0 2.6 0.00 0.00 0.00 46 1012.5
20260905195336 96 0.0 0.9 0.00 0.00 0.00 51 1012.7
20260905194317 96 0.0 0.9 0.00 0.00 0.00 52 1012.8
20260905193336 97 68 1.7 3.5 0.00 0.00 0.00 48 1012.9
20260905192316 97 45 1.7 2.6 0.00 0.00 0.00 48 1013.0
20260905191317 97 0 0.9 2.6 0.00 0.00 0.00 47 1013.1
20260905190316 98 293 1.7 2.6 0.00 0.00 0.00 46 1013.4
20260905185316 96 338 1.7 4.3 0.00 0.00 0.00 49 1013.6
20260905184320 96 315 0.9 1.7 0.00 0.00 0.00 49 1013.7
20260905183338 94 0.0 0.0 0.00 0.00 0.00 52 1014.0
20260905182316 93 0.0 0.9 0.00 0.00 0.00 54 1014.0
20260905181316 94 0 2.6 4.3 0.00 0.00 0.00 53 1014.2
20260905180317 95 68 2.6 4.3 0.00 0.00 0.00 52 1014.2
20260905175316 95 270 1.7 3.5 0.00 0.00 0.00 54 1014.3
20260905174337 93 0.0 0.9 0.00 0.00 0.00 56 1014.3
20260905173316 94 45 1.7 3.5 0.00 0.00 0.00 55 1014.2
20260905172316 94 68 1.7 3.5 0.00 0.00 0.00 56 1014.2
20260905171316 93 248 1.7 7.0 0.00 0.00 0.00 57 1014.3
20260905170316 93 90 3.5 6.1 0.00 0.00 0.00 57 1014.4
20260905165318 94 23 1.7 3.5 0.00 0.00 0.00 56 1014.7
20260905164316 93 0 0.9 2.6 0.00 0.00 0.00 56 1014.9
20260905163316 93 68 2.6 4.3 0.00 0.00 0.00 57 1015.0
20260905162316 93 0 1.7 4.3 0.00 0.00 0.00 58 1015.2
20260905161316 92 0.0 0.0 0.00 0.00 0.00 59 1015.3
20260905160338 92 23 1.7 3.5 0.00 0.00 0.00 57 1015.3
20260905155318 92 0.0 0.9 0.00 0.00 0.00 60 1015.4
20260905154318 91 0.0 0.9 0.00 0.00 0.00 62 1015.3
20260905153318 90 68 1.7 2.6 0.00 0.00 0.00 65 1015.3
20260905152318 90 293 0.9 3.5 0.00 0.00 0.00 66 1015.3
20260905151318 89 338 1.7 3.5 0.00 0.00 0.00 66 1015.3
20260905150318 88 270 0.9 1.7 0.00 0.00 0.00 70 1015.4
20260905145318 87 180 1.7 4.3 0.00 0.00 0.00 72 1015.4
20260905144318 86 0.0 1.7 0.00 0.00 0.00 72 1015.4
20260905143318 86 0.0 0.9 0.00 0.00 0.00 73 1015.5
20260905142318 84 0.0 0.0 0.00 0.00 0.00 80 1015.6
20260905141317 83 0.0 0.0 0.00 0.00 0.00 82 1015.6
20260905140319 81 0.0 0.0 0.00 0.00 0.00 84 1015.7
20260905135318 81 0.0 0.0 0.00 0.00 0.00 86 1015.7
20260905134317 80 0.0 0.0 0.00 0.00 0.00 86 1015.6
20260905133317 80 0.0 0.0 0.00 0.00 0.00 86 1015.7
20260905132318 80 0.0 0.0 0.00 0.00 0.00 87 1015.8
20260905131318 80 0.0 0.0 0.00 0.00 0.00 88 1015.8
20260905130317 78 0.0 0.0 0.00 0.00 0.00 92 1015.7
20260905125317 77 0.0 0.0 0.00 0.00 0.00 93 1015.7
20260905124318 76 0.0 0.0 0.00 0.00 0.00 95 1015.5
20260905123317 75 0.0 0.0 0.00 0.00 0.00 95 1015.5
20260905122317 74 0.0 0.0 0.00 0.00 0.00 95 1015.4
20260905121317 73 0.0 0.0 0.00 0.00 0.00 95 1015.1
20260905120317 73 0.0 0.0 0.00 0.00 0.00 95 1015.1
20260905115317 72 0.0 0.0 0.00 0.00 0.00 94 1015.1
20260905114317 72 0.0 0.0 0.00 0.00 0.00 94 1015.1
20260905113317 72 0.0 0.0 0.00 0.00 0.00 94 1015.0
20260905112317 72 0.0 0.0 0.00 0.00 0.00 94 1014.9
20260905111317 73 0.0 0.0 0.00 0.00 0.00 94 1014.7
20260905110317 73 0.0 0.0 0.00 0.00 0.00 94 1014.7
20260905105317 73 0.0 0.0 0.00 0.00 0.00 94 1014.6
20260905104338 73 0.0 0.0 0.00 0.00 0.00 94 1014.5
20260905103317 73 0.0 0.0 0.00 0.00 0.00 94 1014.5
20260905102318 72 0.0 0.0 0.00 0.00 0.00 94 1014.3
20260905101337 72 0.0 0.0 0.00 0.00 0.00 94 1014.2
20260905100338 72 0.0 0.0 0.00 0.00 0.00 93 1014.5
20260905095317 72 0.0 0.0 0.00 0.00 0.00 93 1014.6
20260905094317 73 0.0 0.0 0.00 0.00 0.00 93 1014.5
20260905093317 73 0.0 0.0 0.00 0.00 0.00 93 1014.5
20260905092317 73 0.0 0.0 0.00 0.00 0.00 93 1014.4
20260905091316 73 0.0 0.0 0.00 0.00 0.00 93 1014.3
20260905090317 73 0.0 0.0 0.00 0.00 0.00 93 1014.4
20260905085316 73 0.0 0.0 0.00 0.00 0.00 93 1014.4
20260905084317 73 0.0 0.0 0.00 0.00 0.00 93 1014.4
20260905083317 73 0.0 0.0 0.00 0.00 0.00 93 1014.3
20260905082317 73 0.0 0.0 0.00 0.00 0.00 93 1014.3
20260905081316 73 0.0 0.0 0.00 0.00 0.00 93 1014.4
20260905080319 73 0.0 0.0 0.00 0.00 0.00 93 1014.1
20260905075317 73 0.0 0.0 0.00 0.00 0.00 93 1014.1
20260905074317 73 0.0 0.0 0.00 0.00 0.00 93 1014.1
20260905073316 72 0.0 0.0 0.00 0.00 0.00 92 1014.1
20260905072316 73 0.0 0.0 0.00 0.00 0.00 92 1014.1
20260905071316 73 0.0 0.0 0.00 0.00 0.00 92 1014.0